Time;durP1;ratioP1;P1;durP2;ratioP2;P2;SDS_P1;SDS_P2;PMS_P1;PMS_P2;Temp;Humidity;BMP_temperature;BMP_pressure;BME280_temperature;BME280_humidity;BME280_pressure;Samples;Min_cycle;Max_cycle;Signal;HPM_P1;HPM_P2
2022/06/22 00:01:04;;;;;;;17.42;5.72;;;;;;;11.99;82.47;101189.22;5068842;28;20049;-78
2022/06/22 00:03:31;;;;;;;16.08;6.25;;;;;;;11.94;82.87;101184.19;5070734;28;20388;-78
2022/06/22 00:05:57;;;;;;;18.92;6.28;;;;;;;11.92;83.45;101185.22;5067090;28;20115;-78
2022/06/22 00:08:35;;;;;;;16.77;5.95;;;;;;;11.87;82.72;101183.75;5070233;28;20044;-78
2022/06/22 00:11:11;;;;;;;19.07;6.60;;;;;;;11.81;83.00;101178.81;5069424;28;20078;-78
2022/06/22 00:13:37;;;;;;;18.58;6.22;;;;;;;11.80;82.90;101176.22;5069393;28;20290;-78
2022/06/22 00:16:14;;;;;;;18.00;5.80;;;;;;;11.75;83.07;101171.19;5065983;28;20076;-78
2022/06/22 00:18:43;;;;;;;21.45;6.53;;;;;;;11.74;83.29;101168.59;5062341;28;20391;-78
2022/06/22 00:21:48;;;;;;;17.50;6.22;;;;;;;11.74;81.90;101161.38;5074568;28;20028;-78
2022/06/22 00:24:23;;;;;;;16.92;6.40;;;;;;;11.68;83.46;101168.09;5026429;28;20108;-78
2022/06/22 00:26:55;;;;;;;17.48;6.95;;;;;;;11.69;83.90;101175.19;5008215;28;20038;-78
2022/06/22 00:29:26;;;;;;;20.25;7.75;;;;;;;11.69;84.23;101169.78;5009825;28;20053;-78
2022/06/22 00:31:51;;;;;;;20.50;8.32;;;;;;;11.70;84.68;101165.28;5027174;28;20379;-78
2022/06/22 00:34:28;;;;;;;20.83;7.95;;;;;;;11.72;84.89;101171.41;5010966;28;20029;-78
2022/06/22 00:37:03;;;;;;;20.02;8.23;;;;;;;11.73;85.26;101154.28;5011262;28;20032;-78
2022/06/22 00:39:28;;;;;;;18.00;7.28;;;;;;;11.75;85.27;101148.78;5026824;28;20033;-78
2022/06/22 00:42:15;;;;;;;19.90;7.32;;;;;;;11.72;84.38;101153.41;5027824;28;20107;-78
2022/06/22 00:45:05;;;;;;;18.35;7.90;;;;;;;11.73;84.04;101165.06;5026928;28;20407;-78
2022/06/22 00:47:53;;;;;;;;;;;;;;;11.78;82.11;101176.34;5027454;28;20552;-78
2022/06/22 00:50:28;;;;;;;19.58;7.78;;;;;;;11.74;84.18;101176.69;5017838;28;20288;-78
2022/06/22 00:53:03;;;;;;;19.52;7.70;;;;;;;11.74;84.61;101166.75;5009769;28;20500;-78
2022/06/22 00:55:48;;;;;;;20.23;7.88;;;;;;;11.76;85.34;101158.56;5057666;28;20458;-78
2022/06/22 00:58:22;;;;;;;20.63;7.47;;;;;;;11.75;85.49;101156.88;5067501;28;20586;-78
2022/06/22 01:00:58;;;;;;;19.10;7.78;;;;;;;11.70;85.14;101151.81;5065768;28;20024;-78
2022/06/22 01:03:38;;;;;;;19.52;7.78;;;;;;;11.69;84.57;101147.41;5067336;28;20050;-78
2022/06/22 01:06:13;;;;;;;19.70;7.70;;;;;;;11.67;84.88;101141.25;5069000;28;20021;-78
2022/06/22 01:09:02;;;;;;;20.25;7.22;;;;;;;11.69;84.37;101152.78;5067474;28;20037;-78
2022/06/22 01:14:34;;;;;;;20.08;9.18;;;;;;;11.67;86.11;101170.88;5067362;28;20043;-78
2022/06/22 01:17:01;;;;;;;19.90;9.30;;;;;;;11.67;86.53;101169.06;5068731;28;20455;-78
2022/06/22 01:19:53;;;;;;;21.00;9.10;;;;;;;11.70;86.30;101181.44;5066369;28;20111;-78
2022/06/22 01:22:43;;;;;;;18.73;8.02;;;;;;;11.73;86.28;101181.22;5056257;28;20036;-78
2022/06/22 01:25:23;;;;;;;19.85;8.93;;;;;;;11.73;86.28;101175.81;5068580;28;20035;-78
2022/06/22 01:27:49;;;;;;;21.17;9.40;;;;;;;11.75;87.20;101164.94;5066547;28;20048;-78
2022/06/22 01:30:31;;;;;;;21.63;10.52;;;;;;;11.76;87.48;101166.63;5068907;28;20391;-78
2022/06/22 01:32:57;;;;;;;20.75;9.57;;;;;;;11.75;87.55;101163.09;5064936;28;20039;-78
2022/06/22 01:35:26;;;;;;;21.73;9.15;;;;;;;11.76;87.63;101145.97;5069175;28;20029;-78
2022/06/22 01:37:52;;;;;;;22.33;9.93;;;;;;;11.76;87.32;101137.03;5067583;28;20043;-78
2022/06/22 01:40:23;;;;;;;20.67;8.98;;;;;;;11.74;87.01;101123.66;5061062;28;20549;-78
2022/06/22 01:42:57;;;;;;;21.70;8.85;;;;;;;11.71;86.87;101129.28;5065778;28;20024;-78
2022/06/22 01:45:36;;;;;;;20.35;9.20;;;;;;;11.69;86.40;101142.00;5068239;28;20368;-78
2022/06/22 01:48:09;;;;;;;20.95;8.63;;;;;;;11.67;86.27;101144.81;5066628;28;20024;-78
2022/06/22 01:50:51;;;;;;;20.45;8.27;;;;;;;11.68;85.76;101140.28;5080127;28;20046;-78
2022/06/22 01:53:47;;;;;;;20.85;8.82;;;;;;;11.67;85.75;101142.13;5068505;28;20082;-78
2022/06/22 01:56:12;;;;;;;23.38;9.93;;;;;;;11.66;87.27;101132.31;5066692;28;20498;-78
2022/06/22 01:59:03;;;;;;;23.23;9.48;;;;;;;11.66;87.13;101137.72;5068737;28;20032;-78
2022/06/22 02:01:43;;;;;;;20.00;9.68;;;;;;;11.67;86.68;101138.56;5051223;28;20037;-80
2022/06/22 02:04:29;;;;;;;26.25;9.05;;;;;;;11.67;86.70;101135.88;5068901;28;20036;-79
2022/06/22 02:09:57;;;;;;;22.42;10.38;;;;;;;11.65;86.68;101129.75;5071262;28;20079;-79
2022/06/22 02:12:28;;;;;;;21.85;9.70;;;;;;;11.64;86.58;101138.78;5068662;28;20036;-79
2022/06/22 02:15:02;;;;;;;23.95;9.52;;;;;;;11.63;87.13;101135.25;5071634;28;20115;-79
2022/06/22 02:17:33;;;;;;;22.88;10.95;;;;;;;11.61;87.17;101125.56;5073256;28;20107;-79
2022/06/22 02:20:44;;;;;;;21.10;9.90;;;;;;;11.64;86.27;101133.41;5075250;28;20035;-79
2022/06/22 02:23:17;;;;;;;22.15;9.98;;;;;;;11.63;86.94;101142.47;5060760;28;20040;-79
2022/06/22 02:26:12;;;;;;;23.88;10.63;;;;;;;11.65;86.41;101135.97;5073598;28;20038;-79
2022/06/22 02:28:39;;;;;;;22.45;10.30;;;;;;;11.63;87.12;101129.88;5067391;28;20408;-79
2022/06/22 02:31:04;;;;;;;21.38;9.77;;;;;;;11.63;87.17;101126.31;5070493;28;20111;-79
2022/06/22 02:33:34;;;;;;;20.98;9.27;;;;;;;11.62;87.37;101114.66;5073504;28;20028;-79
2022/06/22 02:36:00;;;;;;;20.40;9.45;;;;;;;11.62;87.33;101111.13;5070793;28;20044;-79
2022/06/22 02:38:26;;;;;;;21.27;9.60;;;;;;;11.62;87.30;101103.06;5072481;28;20533;-79
2022/06/22 02:46:28;;;;;;;23.30;11.25;;;;;;;11.63;87.61;101110.16;5063145;28;20074;-79
2022/06/22 02:48:59;;;;;;;22.00;11.27;;;;;;;11.64;88.52;101109.16;5069895;28;20020;-79
2022/06/22 02:51:41;;;;;;;22.10;10.75;;;;;;;11.65;88.35;101111.75;5077370;28;20024;-79
2022/06/22 02:54:18;;;;;;;21.95;9.60;;;;;;;11.65;88.78;101116.28;5071503;28;20040;-79
2022/06/22 02:56:44;;;;;;;22.63;10.60;;;;;;;11.66;88.62;101118.88;5065217;28;20023;-79
2022/06/22 02:59:10;;;;;;;23.60;11.32;;;;;;;11.66;88.54;101123.41;5070400;28;20075;-79
2022/06/22 03:01:38;;;;;;;20.65;10.15;;;;;;;11.63;88.43;101139.78;5069614;28;20075;-79
2022/06/22 03:04:11;;;;;;;22.27;10.82;;;;;;;11.62;88.31;101136.22;5068735;28;20020;-79
2022/06/22 03:06:41;;;;;;;23.67;10.88;;;;;;;11.59;88.50;101135.59;5061140;28;20055;-79
2022/06/22 03:09:08;;;;;;;25.92;11.10;;;;;;;11.54;88.08;101126.00;5072397;28;20115;-79
2022/06/22 03:11:37;;;;;;;21.75;10.57;;;;;;;11.53;88.54;101129.66;5070019;28;20028;-79
2022/06/22 03:14:20;;;;;;;21.42;11.07;;;;;;;11.56;88.60;101127.75;5068832;28;20085;-79
2022/06/22 03:16:50;;;;;;;22.23;10.63;;;;;;;11.49;88.44;101121.94;5069978;28;20136;-79
2022/06/22 03:19:21;;;;;;;24.63;11.40;;;;;;;11.45;87.93;101118.63;5064420;28;20025;-79
2022/06/22 03:21:46;;;;;;;22.55;10.85;;;;;;;11.45;87.92;101118.63;5070129;28;20051;-79
2022/06/22 03:24:32;;;;;;;21.27;11.07;;;;;;;11.41;87.52;101113.56;5070476;28;20062;-79
2022/06/22 03:27:09;;;;;;;21.23;9.70;;;;;;;11.35;87.48;101112.19;5070081;28;20487;-79
2022/06/22 03:29:39;;;;;;;24.33;10.52;;;;;;;11.32;88.13;101107.03;5069391;28;20083;-79
2022/06/22 03:32:13;;;;;;;23.67;10.70;;;;;;;11.29;88.33;101104.53;5068425;28;20103;-79
2022/06/22 03:34:46;;;;;;;24.10;11.52;;;;;;;11.26;88.11;101108.31;5068721;28;20077;-79
2022/06/22 03:37:20;;;;;;;23.10;10.35;;;;;;;11.25;88.41;101106.59;5069733;28;20394;-79
2022/06/22 03:39:50;;;;;;;21.67;10.25;;;;;;;11.24;88.37;101109.41;5070572;28;20035;-79
2022/06/22 03:42:25;;;;;;;22.73;11.40;;;;;;;11.19;88.42;101107.91;5070516;28;20029;-79
2022/06/22 03:45:00;;;;;;;22.92;10.88;;;;;;;11.18;88.13;101102.63;5069225;28;20017;-79
2022/06/22 03:47:34;;;;;;;23.42;10.02;;;;;;;11.19;88.51;101094.44;5067606;28;20037;-79
2022/06/22 03:50:26;;;;;;;24.02;10.70;;;;;;;11.18;88.21;101095.41;5060514;28;20032;-79
2022/06/22 03:53:00;;;;;;;23.83;11.10;;;;;;;11.19;89.08;101091.75;5069221;28;20025;-79
2022/06/22 03:55:34;;;;;;;21.15;10.65;;;;;;;11.16;89.16;101097.34;5064887;28;20044;-79
2022/06/22 03:58:02;;;;;;;21.70;11.50;;;;;;;11.16;89.24;101108.13;5068254;28;20054;-79
2022/06/22 04:00:28;;;;;;;20.52;9.77;;;;;;;11.19;88.80;101104.34;5063348;28;20158;-79
2022/06/22 04:02:55;;;;;;;20.10;10.15;;;;;;;11.18;89.08;101106.16;5068969;28;20020;-79
2022/06/22 04:05:26;;;;;;;28.30;12.05;;;;;;;11.22;89.21;101090.69;5070504;28;20039;-79
2022/06/22 04:07:53;;;;;;;22.25;10.90;;;;;;;11.26;89.15;101094.00;5067501;28;20132;-79
2022/06/22 04:10:33;;;;;;;24.42;11.68;;;;;;;11.29;89.51;101089.25;5069117;28;20046;-79
2022/06/22 04:13:02;;;;;;;22.20;12.45;;;;;;;11.32;89.84;101096.25;5065340;28;20508;-79
2022/06/22 04:15:44;;;;;;;22.98;12.25;;;;;;;11.33;89.44;101093.47;5069374;28;20032;-79
2022/06/22 04:18:21;;;;;;;24.48;11.52;;;;;;;11.36;89.66;101097.72;5070273;28;20024;-79
2022/06/22 04:20:55;;;;;;;23.92;11.35;;;;;;;11.41;90.18;101100.13;5069040;28;20048;-79
2022/06/22 04:23:45;;;;;;;25.25;11.90;;;;;;;11.44;90.51;101105.28;5070649;28;20036;-79
2022/06/22 04:26:31;;;;;;;24.23;13.32;;;;;;;11.50;90.36;101089.50;5070095;28;20047;-79
2022/06/22 04:29:06;;;;;;;25.92;13.57;;;;;;;11.55;91.72;101099.94;5065964;28;20107;-79
2022/06/22 04:31:38;;;;;;;24.58;13.65;;;;;;;11.58;91.58;101099.75;5066808;28;20032;-79
2022/06/22 04:34:14;;;;;;;24.00;12.45;;;;;;;11.63;91.66;101110.16;5068732;28;20107;-79
2022/06/22 04:36:51;;;;;;;24.85;12.23;;;;;;;11.68;91.79;101113.38;5065852;28;20055;-79
2022/06/22 04:39:25;;;;;;;26.10;13.10;;;;;;;11.71;92.30;101119.41;5066490;28;20029;-79
2022/06/22 04:41:52;;;;;;;24.35;14.50;;;;;;;11.77;92.78;101119.91;5066637;28;20028;-79
2022/06/22 04:44:22;;;;;;;27.35;13.52;;;;;;;11.82;92.98;101121.28;5068943;28;20051;-79
2022/06/22 04:46:49;;;;;;;;;;;;;;;11.93;90.33;101120.50;5068411;28;20120;-79
2022/06/22 04:49:31;;;;;;;24.17;12.98;;;;;;;11.95;92.50;101115.88;5067221;28;19924;-79
2022/06/22 04:52:18;;;;;;;27.30;14.82;;;;;;;12.00;93.82;101112.84;5067102;28;20032;-79
2022/06/22 04:54:45;;;;;;;25.20;14.63;;;;;;;12.08;93.46;101118.50;5068488;28;20070;-79
2022/06/22 04:57:34;;;;;;;25.38;14.32;;;;;;;12.14;94.08;101118.06;5068310;28;20055;-79
2022/06/22 05:00:04;;;;;;;25.23;13.18;;;;;;;12.22;94.56;101122.84;5066520;28;20407;-79
2022/06/22 05:02:32;;;;;;;29.05;14.20;;;;;;;12.28;94.80;101124.22;5064151;28;20096;-79
2022/06/22 05:05:07;;;;;;;27.75;15.63;;;;;;;12.34;94.58;101121.03;5066550;28;20043;-79
2022/06/22 05:07:50;;;;;;;25.80;13.32;;;;;;;12.41;95.02;101127.69;5068420;28;20068;-79
2022/06/22 05:10:38;;;;;;;28.23;15.10;;;;;;;12.49;94.82;101127.09;5067734;28;20047;-79
2022/06/22 05:13:10;;;;;;;26.90;15.20;;;;;;;12.56;95.75;101131.03;5073511;28;20028;-79
2022/06/22 05:15:38;;;;;;;25.83;15.10;;;;;;;12.64;95.83;101127.78;5067722;28;20086;-79
2022/06/22 05:18:11;;;;;;;26.92;15.00;;;;;;;12.71;95.77;101137.09;5070302;28;20561;-79
2022/06/22 05:20:57;;;;;;;26.50;15.45;;;;;;;12.79;96.62;101123.84;5065660;28;20021;-79
2022/06/22 05:23:26;;;;;;;26.88;16.13;;;;;;;12.87;96.52;101129.53;5068991;28;20037;-79
2022/06/22 05:25:53;;;;;;;30.42;16.42;;;;;;;12.94;96.66;101125.38;5068424;28;20367;-79
2022/06/22 05:28:34;;;;;;;28.55;15.88;;;;;;;13.03;97.61;101137.25;5066315;28;20035;-79
2022/06/22 05:31:05;;;;;;;27.95;16.02;;;;;;;13.12;97.39;101135.69;5064834;28;20039;-79
2022/06/22 05:33:34;;;;;;;28.13;16.08;;;;;;;13.20;97.25;101138.59;5069070;28;20028;-79
2022/06/22 05:36:05;;;;;;;28.17;15.93;;;;;;;13.26;97.15;101145.34;5069297;28;20356;-79
2022/06/22 05:38:35;;;;;;;28.85;17.20;;;;;;;13.33;97.48;101143.03;5064611;28;20482;-79
2022/06/22 05:41:04;;;;;;;;;;;;;;;13.41;94.68;101140.59;5066467;28;20032;-79
2022/06/22 05:43:30;;;;;;;32.28;17.52;;;;;;;13.48;96.60;101152.63;5063660;28;19913;-79
2022/06/22 05:45:57;;;;;;;28.75;16.80;;;;;;;13.53;96.97;101147.72;5072789;28;20111;-79
2022/06/22 05:48:25;;;;;;;27.65;16.65;;;;;;;13.59;96.37;101159.88;5072787;28;20029;-79
2022/06/22 05:50:58;;;;;;;28.48;15.77;;;;;;;13.65;96.54;101159.38;5074279;28;20047;-79
2022/06/22 05:53:56;;;;;;;26.58;16.10;;;;;;;13.70;95.05;101167.09;5071161;28;20496;-79
2022/06/22 05:56:21;;;;;;;27.33;14.93;;;;;;;13.75;93.83;101167.59;5060098;28;20040;-79
2022/06/22 05:58:59;;;;;;;36.42;15.80;;;;;;;13.80;93.23;101178.84;5070139;28;20032;-79
2022/06/22 06:01:38;;;;;;;29.23;16.00;;;;;;;13.89;93.17;101175.38;5071461;28;20028;-79
2022/06/22 06:04:16;;;;;;;28.00;16.35;;;;;;;13.95;93.31;101174.91;5069217;28;20039;-79
2022/06/22 06:06:43;;;;;;;29.17;14.95;;;;;;;14.04;94.51;101175.09;5070752;28;20043;-79
2022/06/22 06:09:22;;;;;;;28.92;16.17;;;;;;;14.08;94.79;101180.13;5071397;28;20120;-79
2022/06/22 06:12:08;;;;;;;33.17;17.23;;;;;;;14.14;95.11;101167.97;5071354;28;20678;-79
2022/06/22 06:14:39;;;;;;;29.17;16.38;;;;;;;14.19;95.21;101167.56;5063193;28;20115;-79
2022/06/22 06:17:12;;;;;;;31.45;17.58;;;;;;;14.23;95.08;101169.91;5072583;28;20408;-79
2022/06/22 06:19:41;;;;;;;26.90;16.88;;;;;;;14.27;94.80;101174.03;5075511;28;20032;-79
2022/06/22 06:22:07;;;;;;;30.42;17.63;;;;;;;14.33;93.65;101173.56;5087114;28;20040;-79
2022/06/22 06:27:34;;;;;;;30.48;17.77;;;;;;;14.40;93.17;101173.03;5065527;28;20479;-79
2022/06/22 06:27:35;;;;;;;29.38;17.52;;;;;;;14.50;93.96;101184.78;5070131;28;20176;-79
2022/06/22 06:30:44;;;;;;;32.95;17.05;;;;;;;14.57;93.06;101177.00;5068797;28;20425;-79
2022/06/22 06:33:22;;;;;;;26.73;16.48;;;;;;;14.64;90.72;101178.22;5070373;28;20098;-79
2022/06/22 06:36:08;;;;;;;28.48;15.98;;;;;;;14.71;89.87;101184.81;5066920;28;20478;-78
2022/06/22 06:38:35;;;;;;;27.67;17.67;;;;;;;14.80;91.27;101181.34;5068193;28;20091;-78
2022/06/22 06:41:11;;;;;;;27.05;15.13;;;;;;;14.87;88.39;101178.09;5062688;28;20031;-77
2022/06/22 06:44:09;;;;;;;24.48;14.05;;;;;;;14.89;87.62;101168.00;5070618;28;20020;-77
2022/06/22 06:46:46;;;;;;;24.90;14.25;;;;;;;14.96;87.61;101161.06;5068742;28;20042;-77
2022/06/22 06:49:28;;;;;;;25.48;15.13;;;;;;;15.01;85.45;101159.69;5053429;28;20449;-77
2022/06/22 06:51:59;;;;;;;27.42;16.75;;;;;;;15.11;88.17;101159.75;5053383;28;20099;-76
2022/06/22 06:55:00;;;;;;;28.42;16.65;;;;;;;15.21;88.01;101159.75;5059429;28;20123;-77
2022/06/22 06:57:26;;;;;;;27.10;16.08;;;;;;;15.29;87.22;101159.97;5067174;28;20107;-77
2022/06/22 06:59:55;;;;;;;29.08;18.10;;;;;;;15.34;86.62;101154.13;5069289;28;20017;-77
2022/06/22 07:02:38;;;;;;;24.45;11.20;;;;;;;15.32;80.66;101153.41;5067024;28;20016;-77
2022/06/22 07:05:08;;;;;;;25.33;12.05;;;;;;;15.40;84.24;101150.03;5070634;28;20039;-77
2022/06/22 07:07:57;;;;;;;23.73;11.55;;;;;;;15.43;83.39;101152.44;5071021;28;20494;-77
2022/06/22 07:10:33;;;;;;;32.42;15.43;;;;;;;15.50;83.16;101142.78;5071499;28;20068;-76
2022/06/22 07:13:01;;;;;;;27.27;13.00;;;;;;;15.53;81.59;101156.06;5071690;28;20398;-77
2022/06/22 07:15:33;;;;;;;27.67;15.68;;;;;;;15.61;84.38;101141.81;5069300;28;20039;-77
2022/06/22 07:18:05;;;;;;;27.73;14.75;;;;;;;15.71;84.57;101146.28;5071150;28;20035;-77
2022/06/22 07:20:37;;;;;;;26.45;14.75;;;;;;;15.81;84.52;101148.19;5070300;28;20028;-77
2022/06/22 07:23:26;;;;;;;30.50;15.25;;;;;;;15.87;84.90;101145.78;5068202;28;20016;-77
2022/06/22 07:26:04;;;;;;;28.67;15.75;;;;;;;15.94;83.47;101137.06;5059811;28;20020;-77
2022/06/22 07:28:36;;;;;;;30.08;14.95;;;;;;;16.01;83.67;101139.06;5064652;28;20517;-77
2022/06/22 07:31:42;;;;;;;27.38;15.55;;;;;;;16.08;83.83;101125.81;5081753;28;20106;-77
2022/06/22 07:34:27;;;;;;;27.25;15.35;;;;;;;16.13;83.80;101115.38;5057177;28;20048;-77
2022/06/22 07:37:36;;;;;;;26.52;15.00;;;;;;;16.20;84.14;101115.69;5069204;28;20016;-76
2022/06/22 07:40:13;;;;;;;30.92;15.50;;;;;;;16.25;83.49;101122.41;5066383;28;20025;-76
2022/06/22 07:42:39;;;;;;;27.48;15.82;;;;;;;16.30;82.69;101123.84;5068904;28;20035;-76
2022/06/22 07:45:05;;;;;;;22.70;11.57;;;;;;;16.28;80.21;101137.50;5065100;28;20025;-76
2022/06/22 07:47:38;;;;;;;27.40;14.65;;;;;;;16.36;82.06;101137.66;5065485;28;20028;-76
2022/06/22 07:50:15;;;;;;;24.58;13.55;;;;;;;16.37;81.08;101139.38;5071117;28;20031;-76
2022/06/22 07:52:46;;;;;;;27.48;14.27;;;;;;;16.41;82.52;101129.97;5075520;28;20410;-77
2022/06/22 07:55:21;;;;;;;26.27;14.60;;;;;;;16.47;82.28;101130.38;5064328;28;20082;-76
2022/06/22 07:57:58;;;;;;;28.17;14.35;;;;;;;16.50;81.88;101127.38;5082902;28;20119;-76
2022/06/22 08:00:25;;;;;;;23.70;13.88;;;;;;;16.56;82.42;101132.22;5077564;28;20436;-76
2022/06/22 08:03:00;;;;;;;27.67;15.10;;;;;;;16.64;83.46;101134.22;5081793;28;20024;-76
2022/06/22 08:05:31;;;;;;;27.40;16.20;;;;;;;16.67;82.18;101129.34;5062400;28;20102;-76
2022/06/22 08:08:08;;;;;;;29.45;15.82;;;;;;;16.71;82.14;101129.94;5069693;28;20078;-76
2022/06/22 08:10:43;;;;;;;25.30;14.35;;;;;;;16.75;81.46;101134.03;5079390;28;20032;-76
2022/06/22 08:13:17;;;;;;;26.25;14.45;;;;;;;16.77;80.97;101141.03;5069719;28;20028;-76
2022/06/22 08:16:06;;;;;;;21.35;10.35;;;;;;;16.82;81.09;101137.88;5067924;28;20024;-76
2022/06/22 08:18:32;;;;;;;26.02;14.25;;;;;;;16.90;80.25;101142.63;5078504;28;20051;-76
2022/06/22 08:20:58;;;;;;;27.85;14.20;;;;;;;16.97;81.03;101141.03;5085368;28;20028;-76
2022/06/22 08:23:27;;;;;;;26.58;14.20;;;;;;;17.04;79.72;101149.44;5077867;28;20309;-76
2022/06/22 08:25:53;;;;;;;;;;;;;;;17.07;81.36;101150.03;5089945;28;20466;-76
2022/06/22 08:28:21;;;;;;;22.80;11.25;;;;;;;17.12;79.80;101146.84;5087635;28;19973;-76
2022/06/22 08:30:49;;;;;;;27.85;14.55;;;;;;;17.22;80.33;101147.66;5076449;28;20095;-76
2022/06/22 08:33:21;;;;;;;25.70;13.00;;;;;;;17.32;79.25;101149.50;5074933;28;20090;-76
2022/06/22 08:35:53;;;;;;;22.80;10.98;;;;;;;17.37;79.42;101153.47;5086803;28;20112;-76
2022/06/22 08:38:26;;;;;;;22.27;11.85;;;;;;;17.41;77.98;101143.13;5081575;28;20055;-77
2022/06/22 08:41:20;;;;;;;27.67;12.25;;;;;;;17.52;79.09;101152.97;5066633;28;20028;-77
2022/06/22 08:43:57;;;;;;;20.67;7.85;;;;;;;17.56;79.74;101151.69;5081302;28;20101;-77
2022/06/22 08:46:39;;;;;;;24.48;11.80;;;;;;;17.63;75.96;101147.34;5083239;28;20459;-76
2022/06/22 08:49:10;;;;;;;24.23;10.43;;;;;;;17.72;77.53;101145.59;5073089;28;20098;-76
2022/06/22 08:51:52;;;;;;;22.83;10.82;;;;;;;17.78;75.23;101156.69;5076527;28;20032;-77
2022/06/22 08:54:39;;;;;;;22.48;10.25;;;;;;;17.88;76.97;101153.03;5068260;28;20118;-77
2022/06/22 08:57:30;;;;;;;20.95;9.57;;;;;;;17.90;75.10;101143.75;5066904;28;20034;-77
2022/06/22 09:00:13;;;;;;;20.60;9.65;;;;;;;18.03;74.83;101143.41;5008143;28;20034;-77
2022/06/22 09:02:44;;;;;;;18.67;7.75;;;;;;;18.05;73.53;101141.38;5010898;28;20559;-77
2022/06/22 09:05:30;;;;;;;18.50;5.65;;;;;;;18.06;73.73;101132.19;5007702;28;20341;-77
2022/06/22 09:08:10;;;;;;;16.63;6.22;;;;;;;18.13;71.78;101144.19;5026163;28;20056;-77
2022/06/22 09:11:05;;;;;;;19.40;6.35;;;;;;;18.19;71.65;101148.16;5046085;28;20040;-78
2022/06/22 09:13:49;;;;;;;13.98;5.03;;;;;;;18.21;71.24;101142.53;5021174;28;20401;-78
2022/06/22 09:16:23;;;;;;;18.92;7.15;;;;;;;18.29;68.79;101154.38;5045602;28;20033;-78
2022/06/22 09:19:10;;;;;;;15.40;5.35;;;;;;;18.30;69.19;101150.66;5020726;28;20319;-78
2022/06/22 09:21:46;;;;;;;16.67;6.53;;;;;;;18.35;67.32;101155.63;5011888;28;20113;-78
2022/06/22 09:24:36;;;;;;;17.17;6.05;;;;;;;18.42;69.20;101156.69;5032348;28;20037;-78
2022/06/22 09:27:26;;;;;;;15.32;5.55;;;;;;;18.43;67.95;101157.53;5050000;28;20435;-78
2022/06/22 09:30:00;;;;;;;;;;;;;;;18.48;68.97;101157.94;5011222;28;20041;-78
2022/06/22 09:33:02;;;;;;;18.35;6.85;;;;;;;18.61;65.29;101169.28;5043509;28;20233;-78
2022/06/22 09:35:47;;;;;;;15.45;5.78;;;;;;;18.66;63.18;101166.91;5047220;28;20043;-78
2022/06/22 09:38:20;;;;;;;15.65;5.53;;;;;;;18.72;64.40;101170.03;5067937;28;20027;-78
2022/06/22 09:41:03;;;;;;;19.08;7.05;;;;;;;18.85;63.18;101160.44;5072661;28;20028;-78
2022/06/22 09:44:22;;;;;;;9.95;4.00;;;;;;;18.82;67.73;101165.34;5069731;28;20028;-78
2022/06/22 09:47:15;;;;;;;17.08;5.85;;;;;;;18.83;65.93;101162.47;5055672;28;20524;-78
2022/06/22 09:50:17;;;;;;;15.88;5.65;;;;;;;18.92;65.98;101160.69;5053232;28;20071;-77
2022/06/22 09:52:55;;;;;;;16.80;5.80;;;;;;;18.97;62.77;101152.03;5069770;28;20394;-77
2022/06/22 09:58:41;;;;;;;17.25;5.82;;;;;;;19.14;59.72;101164.75;5069747;28;20086;-78
2022/06/22 10:01:31;;;;;;;14.10;5.30;;;;;;;19.21;62.57;101159.53;5069258;28;20043;-77
2022/06/22 10:04:08;;;;;;;14.52;4.80;;;;;;;19.26;59.95;101142.69;5037679;28;20021;-78
2022/06/22 10:06:52;;;;;;;10.75;4.18;;;;;;;19.27;61.92;101147.09;5049847;28;20543;-78
2022/06/22 10:09:29;;;;;;;13.32;4.47;;;;;;;19.32;61.96;101147.47;5048185;28;20064;-79
2022/06/22 10:12:30;;;;;;;11.07;4.63;;;;;;;19.41;62.03;101143.75;5047442;28;20028;-78
2022/06/22 10:15:28;;;;;;;13.18;4.30;;;;;;;19.42;63.01;101144.63;5064762;28;20040;-79
2022/06/22 10:18:25;;;;;;;10.43;4.20;;;;;;;19.47;62.41;101137.66;5064688;28;20029;-79
2022/06/22 10:21:01;;;;;;;10.15;3.72;;;;;;;19.43;64.21;101125.38;5052014;28;20040;-79
2022/06/22 10:23:32;;;;;;;8.73;3.08;;;;;;;19.44;64.27;101124.34;5085701;28;20110;-80
2022/06/22 10:26:10;;;;;;;10.80;4.15;;;;;;;19.53;61.08;101128.84;5075050;28;20505;-80
2022/06/22 10:28:51;;;;;;;8.65;3.50;;;;;;;19.62;61.67;101134.28;5078584;28;20032;-80
2022/06/22 10:31:35;;;;;;;7.15;3.28;;;;;;;19.63;62.76;101133.28;5072091;28;20040;-80
2022/06/22 10:34:11;;;;;;;13.45;3.65;;;;;;;19.64;61.67;101135.00;5087702;28;20035;-80
2022/06/22 10:36:37;;;;;;;12.27;4.80;;;;;;;19.72;57.57;101124.09;5072968;28;20024;-82
2022/06/22 10:39:30;;;;;;;10.27;3.63;;;;;;;19.69;61.78;101119.84;5078091;28;20039;-83
2022/06/22 10:45:10;;;;;;;12.57;4.57;;;;;;;19.91;58.99;101123.00;5078439;28;20059;-83
2022/06/22 10:47:51;;;;;;;10.15;4.00;;;;;;;19.93;60.91;101120.09;5074039;28;20032;-82
2022/06/22 10:50:42;;;;;;;9.23;3.83;;;;;;;19.98;61.04;101128.66;5084987;28;20034;-81
2022/06/22 10:53:22;;;;;;;7.32;3.47;;;;;;;19.95;61.43;101124.38;5020724;28;20057;-82
2022/06/22 10:55:58;;;;;;;12.48;4.35;;;;;;;20.04;55.09;101122.50;5029057;28;20037;-81
2022/06/22 10:58:47;;;;;;;12.82;4.68;;;;;;;20.13;59.79;101121.50;5030172;28;20040;-81
2022/06/22 11:01:15;;;;;;;11.37;4.50;;;;;;;20.18;59.31;101118.28;5006217;28;20564;-81
2022/06/22 11:04:11;;;;;;;9.45;3.08;;;;;;;20.14;60.64;101119.63;5021471;28;20438;-80
2022/06/22 11:07:03;;;;;;;9.48;3.70;;;;;;;20.25;59.73;101113.84;5019274;28;20052;-81
2022/06/22 11:09:44;;;;;;;6.50;2.67;;;;;;;20.30;60.46;101116.06;5039522;28;20049;-81
2022/06/22 11:12:42;;;;;;;10.25;3.67;;;;;;;20.38;58.99;101121.50;5028500;28;20128;-82
2022/06/22 11:15:33;;;;;;;13.90;4.03;;;;;;;20.49;56.34;101115.72;5027984;28;20533;-82
2022/06/22 11:18:15;;;;;;;9.48;3.70;;;;;;;20.48;56.51;101116.72;5026713;28;20072;-81
2022/06/22 11:21:12;;;;;;;12.18;3.85;;;;;;;20.57;58.60;101112.13;5024763;28;20136;-82
2022/06/22 11:24:03;;;;;;;8.60;3.20;;;;;;;20.65;56.01;101108.56;5008789;28;20180;-81
2022/06/22 11:33:08;;;;;;;9.60;3.70;;;;;;;20.86;57.93;101108.88;5073459;28;20086;-81
2022/06/22 11:35:46;;;;;;;13.30;4.43;;;;;;;20.90;57.15;101112.97;5073443;28;20060;-81
2022/06/22 11:38:37;;;;;;;15.07;3.90;;;;;;;20.94;57.29;101117.06;5064197;28;20031;-80
2022/06/22 11:41:11;;;;;;;11.32;3.60;;;;;;;20.97;57.56;101128.66;5070048;28;20024;-81
2022/06/22 11:44:27;;;;;;;13.45;4.68;;;;;;;21.03;58.35;101127.97;5072753;28;20029;-80
2022/06/22 11:46:55;;;;;;;10.18;4.38;;;;;;;21.08;54.21;101120.97;5009762;28;20060;-78
2022/06/22 11:49:50;;;;;;;10.18;3.70;;;;;;;21.06;58.85;101128.47;5010201;28;20194;-79
2022/06/22 11:52:31;;;;;;;8.45;3.20;;;;;;;21.10;55.56;101123.53;5013443;28;20033;-78
2022/06/22 11:55:09;;;;;;;10.18;3.58;;;;;;;21.12;57.69;101121.44;5028675;28;20033;-78
2022/06/22 11:57:53;;;;;;;6.95;3.22;;;;;;;21.10;58.32;101129.81;5014441;28;20029;-77
2022/06/22 12:00:21;;;;;;;12.80;4.28;;;;;;;21.14;56.49;101127.56;5021371;28;20033;-78
2022/06/22 12:02:49;;;;;;;10.10;3.85;;;;;;;21.19;56.45;101119.72;5027306;28;20044;-76
2022/06/22 12:05:48;;;;;;;10.38;3.22;;;;;;;21.16;58.28;101120.06;5030883;28;20388;-78
2022/06/22 12:08:21;;;;;;;;;;;;;;;21.19;59.17;101114.25;5045172;28;20053;-78
2022/06/22 12:11:05;;;;;;;11.55;3.83;;;;;;;21.22;58.47;101119.38;5023207;28;20391;-76
2022/06/22 12:15:04;;;;;;;8.55;3.05;;;;;;;21.21;57.52;101114.91;5010568;28;20095;-78
2022/06/22 12:17:07;;;;;;;13.27;4.20;;;;;;;21.32;58.51;101110.09;5024974;28;20072;-78
2022/06/22 12:19:44;;;;;;;11.80;4.40;;;;;;;21.35;56.32;101101.53;5013814;28;20041;-78
2022/06/22 12:22:28;;;;;;;9.98;3.35;;;;;;;21.39;56.57;101090.09;5041823;28;20048;-79
2022/06/22 12:25:17;;;;;;;7.75;2.75;;;;;;;21.36;57.33;101089.56;5067769;28;20479;-79
2022/06/22 12:27:54;;;;;;;9.77;3.47;;;;;;;21.36;55.67;101084.94;5062978;28;20067;-80